sensor_id;sensor_type;location;lat;lon;timestamp;temperature;humidity
18880;DHT22;9572;52.378;13.404;2023-07-22T00:02:19;13.10;99.90
18880;DHT22;9572;52.378;13.404;2023-07-22T00:04:46;13.10;99.90
18880;DHT22;9572;52.378;13.404;2023-07-22T00:07:13;13.20;99.90
18880;DHT22;9572;52.378;13.404;2023-07-22T00:09:43;13.20;99.90
18880;DHT22;9572;52.378;13.404;2023-07-22T00:12:10;13.20;99.90
18880;DHT22;9572;52.378;13.404;2023-07-22T00:14:39;13.20;99.90
18880;DHT22;9572;52.378;13.404;2023-07-22T00:17:07;13.20;99.90
18880;DHT22;9572;52.378;13.404;2023-07-22T00:19:34;13.40;99.90
18880;DHT22;9572;52.378;13.404;2023-07-22T00:22:01;13.60;99.90
18880;DHT22;9572;52.378;13.404;2023-07-22T00:24:28;13.60;99.90
18880;DHT22;9572;52.378;13.404;2023-07-22T00:26:57;13.60;99.90
18880;DHT22;9572;52.378;13.404;2023-07-22T00:29:24;13.50;99.90
18880;DHT22;9572;52.378;13.404;2023-07-22T00:31:51;13.50;99.90
18880;DHT22;9572;52.378;13.404;2023-07-22T00:34:19;13.60;99.90
18880;DHT22;9572;52.378;13.404;2023-07-22T00:36:46;13.50;99.90
18880;DHT22;9572;52.378;13.404;2023-07-22T00:39:13;13.50;99.90
18880;DHT22;9572;52.378;13.404;2023-07-22T00:41:41;13.50;99.90
18880;DHT22;9572;52.378;13.404;2023-07-22T00:44:12;13.40;99.90
18880;DHT22;9572;52.378;13.404;2023-07-22T00:46:39;13.50;99.90
18880;DHT22;9572;52.378;13.404;2023-07-22T00:49:07;13.50;99.90
18880;DHT22;9572;52.378;13.404;2023-07-22T00:51:34;13.60;99.90
18880;DHT22;9572;52.378;13.404;2023-07-22T00:54:01;13.60;99.90
18880;DHT22;9572;52.378;13.404;2023-07-22T00:56:31;13.60;99.90
18880;DHT22;9572;52.378;13.404;2023-07-22T00:59:00;13.70;99.90
18880;DHT22;9572;52.378;13.404;2023-07-22T01:01:29;13.60;99.90
18880;DHT22;9572;52.378;13.404;2023-07-22T01:03:57;13.60;99.90
18880;DHT22;9572;52.378;13.404;2023-07-22T01:06:26;13.60;99.90
18880;DHT22;9572;52.378;13.404;2023-07-22T01:08:56;13.50;99.90
18880;DHT22;9572;52.378;13.404;2023-07-22T01:11:23;13.60;99.90
18880;DHT22;9572;52.378;13.404;2023-07-22T01:13:51;13.60;99.90
18880;DHT22;9572;52.378;13.404;2023-07-22T01:16:24;13.60;99.90
18880;DHT22;9572;52.378;13.404;2023-07-22T01:18:53;13.60;99.90
18880;DHT22;9572;52.378;13.404;2023-07-22T01:21:21;13.70;99.90
18880;DHT22;9572;52.378;13.404;2023-07-22T01:23:50;13.70;99.90
18880;DHT22;9572;52.378;13.404;2023-07-22T01:26:18;13.70;99.90
18880;DHT22;9572;52.378;13.404;2023-07-22T01:28:45;13.80;99.90
18880;DHT22;9572;52.378;13.404;2023-07-22T01:31:12;13.80;99.90
18880;DHT22;9572;52.378;13.404;2023-07-22T01:33:38;13.80;99.90
18880;DHT22;9572;52.378;13.404;2023-07-22T01:36:05;13.90;99.90
18880;DHT22;9572;52.378;13.404;2023-07-22T01:38:33;13.90;99.90
18880;DHT22;9572;52.378;13.404;2023-07-22T01:41:02;13.90;99.90
18880;DHT22;9572;52.378;13.404;2023-07-22T01:43:30;14.00;99.90
18880;DHT22;9572;52.378;13.404;2023-07-22T01:45:57;14.00;99.90
18880;DHT22;9572;52.378;13.404;2023-07-22T01:48:24;14.00;99.90
18880;DHT22;9572;52.378;13.404;2023-07-22T01:50:51;14.00;99.90
18880;DHT22;9572;52.378;13.404;2023-07-22T01:53:18;14.10;99.90
18880;DHT22;9572;52.378;13.404;2023-07-22T01:55:46;14.10;99.90
18880;DHT22;9572;52.378;13.404;2023-07-22T01:58:14;14.10;99.90
18880;DHT22;9572;52.378;13.404;2023-07-22T02:00:41;14.10;99.90
18880;DHT22;9572;52.378;13.404;2023-07-22T02:03:08;14.10;99.90
18880;DHT22;9572;52.378;13.404;2023-07-22T02:05:35;14.00;99.90
18880;DHT22;9572;52.378;13.404;2023-07-22T02:08:02;14.00;99.90
18880;DHT22;9572;52.378;13.404;2023-07-22T02:10:29;14.00;99.90
18880;DHT22;9572;52.378;13.404;2023-07-22T02:12:56;14.00;99.90
18880;DHT22;9572;52.378;13.404;2023-07-22T02:15:24;14.10;99.90
18880;DHT22;9572;52.378;13.404;2023-07-22T02:17:51;14.10;99.90
18880;DHT22;9572;52.378;13.404;2023-07-22T02:20:20;14.10;99.90
18880;DHT22;9572;52.378;13.404;2023-07-22T02:22:47;14.10;99.90
18880;DHT22;9572;52.378;13.404;2023-07-22T02:25:14;14.10;99.90
18880;DHT22;9572;52.378;13.404;2023-07-22T02:27:41;14.10;99.90
18880;DHT22;9572;52.378;13.404;2023-07-22T02:30:09;14.10;99.90
18880;DHT22;9572;52.378;13.404;2023-07-22T02:32:39;14.00;99.90
18880;DHT22;9572;52.378;13.404;2023-07-22T02:35:08;14.10;99.90
18880;DHT22;9572;52.378;13.404;2023-07-22T02:37:37;14.10;99.90
18880;DHT22;9572;52.378;13.404;2023-07-22T02:40:06;14.10;99.90
18880;DHT22;9572;52.378;13.404;2023-07-22T02:42:34;14.10;99.90
18880;DHT22;9572;52.378;13.404;2023-07-22T02:45:02;14.10;99.90
18880;DHT22;9572;52.378;13.404;2023-07-22T02:47:29;14.10;99.90
18880;DHT22;9572;52.378;13.404;2023-07-22T02:49:58;14.20;99.90
18880;DHT22;9572;52.378;13.404;2023-07-22T02:52:25;14.20;99.90
18880;DHT22;9572;52.378;13.404;2023-07-22T02:55:06;14.20;99.90
18880;DHT22;9572;52.378;13.404;2023-07-22T02:57:34;14.10;99.90
18880;DHT22;9572;52.378;13.404;2023-07-22T03:00:02;14.10;99.90
18880;DHT22;9572;52.378;13.404;2023-07-22T03:02:32;14.10;99.90
18880;DHT22;9572;52.378;13.404;2023-07-22T03:05:01;14.00;99.90
18880;DHT22;9572;52.378;13.404;2023-07-22T03:07:31;14.00;99.90
18880;DHT22;9572;52.378;13.404;2023-07-22T03:09:59;14.00;99.90
18880;DHT22;9572;52.378;13.404;2023-07-22T03:12:26;13.90;99.90
18880;DHT22;9572;52.378;13.404;2023-07-22T03:14:53;13.90;99.90
18880;DHT22;9572;52.378;13.404;2023-07-22T03:17:20;13.90;99.90
18880;DHT22;9572;52.378;13.404;2023-07-22T03:19:47;13.90;99.90
18880;DHT22;9572;52.378;13.404;2023-07-22T03:22:16;13.90;99.90
18880;DHT22;9572;52.378;13.404;2023-07-22T03:24:43;13.80;99.90
18880;DHT22;9572;52.378;13.404;2023-07-22T03:27:10;13.80;99.90
18880;DHT22;9572;52.378;13.404;2023-07-22T03:29:38;13.80;99.90
18880;DHT22;9572;52.378;13.404;2023-07-22T03:32:06;13.70;99.90
18880;DHT22;9572;52.378;13.404;2023-07-22T03:34:34;13.80;99.90
18880;DHT22;9572;52.378;13.404;2023-07-22T03:37:01;13.80;99.90
18880;DHT22;9572;52.378;13.404;2023-07-22T03:39:30;13.80;99.90
18880;DHT22;9572;52.378;13.404;2023-07-22T03:41:57;13.80;99.90
18880;DHT22;9572;52.378;13.404;2023-07-22T03:44:24;13.80;99.90
18880;DHT22;9572;52.378;13.404;2023-07-22T03:46:51;13.80;99.90
18880;DHT22;9572;52.378;13.404;2023-07-22T03:49:19;13.80;99.90
18880;DHT22;9572;52.378;13.404;2023-07-22T03:51:47;13.80;99.90
18880;DHT22;9572;52.378;13.404;2023-07-22T03:54:14;13.80;99.90
18880;DHT22;9572;52.378;13.404;2023-07-22T03:56:43;13.90;99.90
18880;DHT22;9572;52.378;13.404;2023-07-22T03:59:10;14.00;99.90
18880;DHT22;9572;52.378;13.404;2023-07-22T04:01:36;13.90;99.90
18880;DHT22;9572;52.378;13.404;2023-07-22T04:04:04;13.90;99.90
18880;DHT22;9572;52.378;13.404;2023-07-22T04:06:31;13.90;99.90
18880;DHT22;9572;52.378;13.404;2023-07-22T04:08:58;13.90;99.90
18880;DHT22;9572;52.378;13.404;2023-07-22T04:11:26;13.90;99.90
18880;DHT22;9572;52.378;13.404;2023-07-22T04:13:54;13.90;99.90
18880;DHT22;9572;52.378;13.404;2023-07-22T04:16:21;13.90;99.90
18880;DHT22;9572;52.378;13.404;2023-07-22T04:18:48;13.80;99.90
18880;DHT22;9572;52.378;13.404;2023-07-22T04:21:15;13.90;99.90
18880;DHT22;9572;52.378;13.404;2023-07-22T04:23:42;13.90;99.90
18880;DHT22;9572;52.378;13.404;2023-07-22T04:26:10;13.90;99.90
18880;DHT22;9572;52.378;13.404;2023-07-22T04:28:37;13.90;99.90
18880;DHT22;9572;52.378;13.404;2023-07-22T04:31:06;13.90;99.90
18880;DHT22;9572;52.378;13.404;2023-07-22T04:33:34;13.90;99.90
18880;DHT22;9572;52.378;13.404;2023-07-22T04:36:01;14.00;99.90
18880;DHT22;9572;52.378;13.404;2023-07-22T04:38:28;14.00;99.90
18880;DHT22;9572;52.378;13.404;2023-07-22T04:40:56;14.10;99.90
18880;DHT22;9572;52.378;13.404;2023-07-22T04:43:23;14.10;99.90
18880;DHT22;9572;52.378;13.404;2023-07-22T04:45:50;14.10;99.90
18880;DHT22;9572;52.378;13.404;2023-07-22T04:48:20;14.10;99.90
18880;DHT22;9572;52.378;13.404;2023-07-22T04:50:49;14.10;99.90
18880;DHT22;9572;52.378;13.404;2023-07-22T04:53:17;14.20;99.90
18880;DHT22;9572;52.378;13.404;2023-07-22T04:55:44;14.30;99.90
18880;DHT22;9572;52.378;13.404;2023-07-22T04:58:11;14.30;99.90
18880;DHT22;9572;52.378;13.404;2023-07-22T05:00:38;14.40;99.90
18880;DHT22;9572;52.378;13.404;2023-07-22T05:03:06;14.40;99.90
18880;DHT22;9572;52.378;13.404;2023-07-22T05:05:34;14.50;99.90
18880;DHT22;9572;52.378;13.404;2023-07-22T05:08:01;14.60;99.90
18880;DHT22;9572;52.378;13.404;2023-07-22T05:10:29;14.70;99.90
18880;DHT22;9572;52.378;13.404;2023-07-22T05:12:56;14.80;99.90
18880;DHT22;9572;52.378;13.404;2023-07-22T05:15:23;14.80;99.90
18880;DHT22;9572;52.378;13.404;2023-07-22T05:17:50;14.80;99.90
18880;DHT22;9572;52.378;13.404;2023-07-22T05:20:17;14.90;99.90
18880;DHT22;9572;52.378;13.404;2023-07-22T05:22:46;15.00;99.90
18880;DHT22;9572;52.378;13.404;2023-07-22T05:25:13;15.10;99.90
18880;DHT22;9572;52.378;13.404;2023-07-22T05:27:40;15.20;99.90
18880;DHT22;9572;52.378;13.404;2023-07-22T05:30:07;15.20;99.90
18880;DHT22;9572;52.378;13.404;2023-07-22T05:32:36;15.20;99.90
18880;DHT22;9572;52.378;13.404;2023-07-22T05:35:04;15.30;99.90
18880;DHT22;9572;52.378;13.404;2023-07-22T05:37:31;15.40;99.90
18880;DHT22;9572;52.378;13.404;2023-07-22T05:40:00;15.60;99.90
18880;DHT22;9572;52.378;13.404;2023-07-22T05:42:28;15.70;99.90
18880;DHT22;9572;52.378;13.404;2023-07-22T05:44:56;15.80;99.90
18880;DHT22;9572;52.378;13.404;2023-07-22T05:47:24;16.10;99.90
18880;DHT22;9572;52.378;13.404;2023-07-22T05:49:51;16.20;99.90
18880;DHT22;9572;52.378;13.404;2023-07-22T05:52:18;16.30;99.90
18880;DHT22;9572;52.378;13.404;2023-07-22T05:54:45;16.40;99.90
18880;DHT22;9572;52.378;13.404;2023-07-22T05:57:13;16.40;99.90
18880;DHT22;9572;52.378;13.404;2023-07-22T05:59:40;16.60;99.90
18880;DHT22;9572;52.378;13.404;2023-07-22T06:02:08;16.80;99.90
18880;DHT22;9572;52.378;13.404;2023-07-22T06:04:36;16.90;99.90
18880;DHT22;9572;52.378;13.404;2023-07-22T06:07:05;17.00;99.90
18880;DHT22;9572;52.378;13.404;2023-07-22T06:09:31;17.20;99.90
18880;DHT22;9572;52.378;13.404;2023-07-22T06:11:59;17.40;99.90
18880;DHT22;9572;52.378;13.404;2023-07-22T06:14:27;17.50;99.90
18880;DHT22;9572;52.378;13.404;2023-07-22T06:16:54;17.60;99.90
18880;DHT22;9572;52.378;13.404;2023-07-22T06:19:21;17.70;99.90
18880;DHT22;9572;52.378;13.404;2023-07-22T06:21:49;17.90;99.90
18880;DHT22;9572;52.378;13.404;2023-07-22T06:24:16;18.00;99.90
18880;DHT22;9572;52.378;13.404;2023-07-22T06:26:43;18.20;99.90
18880;DHT22;9572;52.378;13.404;2023-07-22T06:29:10;18.30;99.90
18880;DHT22;9572;52.378;13.404;2023-07-22T06:31:38;18.40;99.90
18880;DHT22;9572;52.378;13.404;2023-07-22T06:34:05;18.50;99.90
18880;DHT22;9572;52.378;13.404;2023-07-22T06:36:32;18.60;99.90
18880;DHT22;9572;52.378;13.404;2023-07-22T06:38:59;18.80;99.90
18880;DHT22;9572;52.378;13.404;2023-07-22T06:41:26;18.90;99.90
18880;DHT22;9572;52.378;13.404;2023-07-22T06:43:53;18.70;99.90
18880;DHT22;9572;52.378;13.404;2023-07-22T06:46:20;18.70;99.90
18880;DHT22;9572;52.378;13.404;2023-07-22T06:48:49;18.70;99.90
18880;DHT22;9572;52.378;13.404;2023-07-22T06:51:16;18.70;99.90
18880;DHT22;9572;52.378;13.404;2023-07-22T06:56:17;18.40;99.90
18880;DHT22;9572;52.378;13.404;2023-07-22T06:58:44;18.50;99.90
18880;DHT22;9572;52.378;13.404;2023-07-22T07:01:10;18.50;99.90
18880;DHT22;9572;52.378;13.404;2023-07-22T07:03:38;18.50;99.90
18880;DHT22;9572;52.378;13.404;2023-07-22T07:06:06;18.70;99.90
18880;DHT22;9572;52.378;13.404;2023-07-22T07:08:33;18.80;99.90
18880;DHT22;9572;52.378;13.404;2023-07-22T07:11:00;19.00;99.90
18880;DHT22;9572;52.378;13.404;2023-07-22T07:13:27;19.10;99.90
18880;DHT22;9572;52.378;13.404;2023-07-22T07:15:54;19.10;99.90
18880;DHT22;9572;52.378;13.404;2023-07-22T07:18:21;19.40;99.90
18880;DHT22;9572;52.378;13.404;2023-07-22T07:20:48;19.60;99.90
18880;DHT22;9572;52.378;13.404;2023-07-22T07:23:18;19.40;99.90
18880;DHT22;9572;52.378;13.404;2023-07-22T07:25:45;19.20;99.90
18880;DHT22;9572;52.378;13.404;2023-07-22T07:28:12;19.00;99.90
18880;DHT22;9572;52.378;13.404;2023-07-22T07:30:40;19.20;99.90
18880;DHT22;9572;52.378;13.404;2023-07-22T07:33:07;19.40;99.90
18880;DHT22;9572;52.378;13.404;2023-07-22T07:35:34;19.70;99.90
18880;DHT22;9572;52.378;13.404;2023-07-22T07:38:01;20.00;99.90
18880;DHT22;9572;52.378;13.404;2023-07-22T07:40:30;20.20;99.90
18880;DHT22;9572;52.378;13.404;2023-07-22T07:42:58;20.60;99.90
18880;DHT22;9572;52.378;13.404;2023-07-22T07:45:25;20.70;99.90
18880;DHT22;9572;52.378;13.404;2023-07-22T07:47:52;20.70;99.90
18880;DHT22;9572;52.378;13.404;2023-07-22T07:50:19;20.60;99.90
18880;DHT22;9572;52.378;13.404;2023-07-22T07:52:46;20.60;99.90
18880;DHT22;9572;52.378;13.404;2023-07-22T07:55:13;20.70;99.90
18880;DHT22;9572;52.378;13.404;2023-07-22T07:57:42;20.60;99.90
18880;DHT22;9572;52.378;13.404;2023-07-22T08:00:09;20.60;99.90
18880;DHT22;9572;52.378;13.404;2023-07-22T08:02:37;20.40;99.90
18880;DHT22;9572;52.378;13.404;2023-07-22T08:05:04;20.40;99.90
18880;DHT22;9572;52.378;13.404;2023-07-22T08:07:31;20.60;99.90
18880;DHT22;9572;52.378;13.404;2023-07-22T08:09:58;20.60;99.90
18880;DHT22;9572;52.378;13.404;2023-07-22T08:12:26;20.90;99.90
18880;DHT22;9572;52.378;13.404;2023-07-22T08:14:54;21.10;99.90
18880;DHT22;9572;52.378;13.404;2023-07-22T08:17:21;20.90;99.90
18880;DHT22;9572;52.378;13.404;2023-07-22T08:19:48;20.80;99.90
18880;DHT22;9572;52.378;13.404;2023-07-22T08:22:16;20.70;99.90
18880;DHT22;9572;52.378;13.404;2023-07-22T08:24:43;20.80;99.90
18880;DHT22;9572;52.378;13.404;2023-07-22T08:27:10;21.00;99.90
18880;DHT22;9572;52.378;13.404;2023-07-22T08:29:37;21.00;99.90
18880;DHT22;9572;52.378;13.404;2023-07-22T08:32:07;21.00;99.90
18880;DHT22;9572;52.378;13.404;2023-07-22T08:34:34;21.10;99.90
18880;DHT22;9572;52.378;13.404;2023-07-22T08:37:01;21.10;99.90
18880;DHT22;9572;52.378;13.404;2023-07-22T08:39:28;21.10;99.90
18880;DHT22;9572;52.378;13.404;2023-07-22T08:41:55;21.10;99.90
18880;DHT22;9572;52.378;13.404;2023-07-22T08:44:25;21.00;99.90
18880;DHT22;9572;52.378;13.404;2023-07-22T08:46:56;20.90;99.90
18880;DHT22;9572;52.378;13.404;2023-07-22T08:49:26;20.70;99.90
18880;DHT22;9572;52.378;13.404;2023-07-22T08:51:54;20.60;99.90
18880;DHT22;9572;52.378;13.404;2023-07-22T08:54:23;20.50;99.90
18880;DHT22;9572;52.378;13.404;2023-07-22T08:56:50;20.30;99.90
18880;DHT22;9572;52.378;13.404;2023-07-22T08:59:17;20.20;99.90
18880;DHT22;9572;52.378;13.404;2023-07-22T09:01:45;20.20;99.90
18880;DHT22;9572;52.378;13.404;2023-07-22T09:04:13;20.20;99.90
18880;DHT22;9572;52.378;13.404;2023-07-22T09:06:42;20.30;99.90
18880;DHT22;9572;52.378;13.404;2023-07-22T09:09:09;20.50;99.90
18880;DHT22;9572;52.378;13.404;2023-07-22T09:11:37;20.60;99.90
18880;DHT22;9572;52.378;13.404;2023-07-22T09:14:04;20.70;99.90
18880;DHT22;9572;52.378;13.404;2023-07-22T09:16:32;21.00;99.90
18880;DHT22;9572;52.378;13.404;2023-07-22T09:18:59;21.20;99.90
18880;DHT22;9572;52.378;13.404;2023-07-22T09:21:26;21.20;99.90
18880;DHT22;9572;52.378;13.404;2023-07-22T09:23:56;21.10;99.90
18880;DHT22;9572;52.378;13.404;2023-07-22T09:26:23;20.80;99.90
18880;DHT22;9572;52.378;13.404;2023-07-22T09:28:53;21.00;99.90
18880;DHT22;9572;52.378;13.404;2023-07-22T09:31:20;21.10;99.90
18880;DHT22;9572;52.378;13.404;2023-07-22T09:33:48;21.20;99.90
18880;DHT22;9572;52.378;13.404;2023-07-22T09:36:16;21.10;99.90
18880;DHT22;9572;52.378;13.404;2023-07-22T09:38:43;21.20;99.90
18880;DHT22;9572;52.378;13.404;2023-07-22T09:41:11;21.60;99.90
18880;DHT22;9572;52.378;13.404;2023-07-22T09:43:39;21.70;99.90
18880;DHT22;9572;52.378;13.404;2023-07-22T09:46:07;21.90;99.90
18880;DHT22;9572;52.378;13.404;2023-07-22T09:48:42;22.10;99.90
18880;DHT22;9572;52.378;13.404;2023-07-22T09:51:14;22.20;99.90
18880;DHT22;9572;52.378;13.404;2023-07-22T09:53:59;22.50;99.90
18880;DHT22;9572;52.378;13.404;2023-07-22T09:56:28;22.90;99.90
18880;DHT22;9572;52.378;13.404;2023-07-22T09:58:55;23.50;99.90
18880;DHT22;9572;52.378;13.404;2023-07-22T10:01:24;23.60;99.90
18880;DHT22;9572;52.378;13.404;2023-07-22T10:03:53;23.30;99.90
18880;DHT22;9572;52.378;13.404;2023-07-22T10:06:23;22.70;99.90
18880;DHT22;9572;52.378;13.404;2023-07-22T10:08:51;22.50;99.90
18880;DHT22;9572;52.378;13.404;2023-07-22T10:11:18;22.30;99.90
18880;DHT22;9572;52.378;13.404;2023-07-22T10:13:47;22.30;99.90
18880;DHT22;9572;52.378;13.404;2023-07-22T10:16:15;22.50;99.90
18880;DHT22;9572;52.378;13.404;2023-07-22T10:18:43;22.90;99.90
18880;DHT22;9572;52.378;13.404;2023-07-22T10:21:10;23.10;99.90
18880;DHT22;9572;52.378;13.404;2023-07-22T10:23:39;23.40;99.90
18880;DHT22;9572;52.378;13.404;2023-07-22T10:26:07;23.50;99.90
18880;DHT22;9572;52.378;13.404;2023-07-22T10:28:37;23.60;99.90
18880;DHT22;9572;52.378;13.404;2023-07-22T10:31:08;23.70;99.90
18880;DHT22;9572;52.378;13.404;2023-07-22T10:33:38;23.90;99.90
18880;DHT22;9572;52.378;13.404;2023-07-22T10:36:06;24.00;99.90
18880;DHT22;9572;52.378;13.404;2023-07-22T10:38:34;24.10;99.90
18880;DHT22;9572;52.378;13.404;2023-07-22T10:41:11;24.00;99.90
18880;DHT22;9572;52.378;13.404;2023-07-22T10:43:39;24.20;99.90
18880;DHT22;9572;52.378;13.404;2023-07-22T10:46:10;24.10;99.90
18880;DHT22;9572;52.378;13.404;2023-07-22T10:48:38;23.90;99.90
18880;DHT22;9572;52.378;13.404;2023-07-22T10:51:09;23.60;99.90
18880;DHT22;9572;52.378;13.404;2023-07-22T10:53:40;23.30;99.90
18880;DHT22;9572;52.378;13.404;2023-07-22T10:56:13;23.50;99.90
18880;DHT22;9572;52.378;13.404;2023-07-22T10:59:00;23.80;99.90
18880;DHT22;9572;52.378;13.404;2023-07-22T11:01:35;24.10;99.90
18880;DHT22;9572;52.378;13.404;2023-07-22T11:04:13;24.20;99.90
18880;DHT22;9572;52.378;13.404;2023-07-22T11:06:52;24.20;99.90
18880;DHT22;9572;52.378;13.404;2023-07-22T11:09:37;24.00;99.90
18880;DHT22;9572;52.378;13.404;2023-07-22T11:12:06;23.70;99.90
18880;DHT22;9572;52.378;13.404;2023-07-22T11:14:35;23.40;99.90
18880;DHT22;9572;52.378;13.404;2023-07-22T11:17:07;23.30;99.90
18880;DHT22;9572;52.378;13.404;2023-07-22T11:19:34;23.20;99.90
18880;DHT22;9572;52.378;13.404;2023-07-22T11:22:02;23.20;99.90
18880;DHT22;9572;52.378;13.404;2023-07-22T11:24:29;23.00;99.90
18880;DHT22;9572;52.378;13.404;2023-07-22T11:26:56;22.90;99.90
18880;DHT22;9572;52.378;13.404;2023-07-22T11:29:23;22.90;99.90
18880;DHT22;9572;52.378;13.404;2023-07-22T11:31:51;23.10;99.90
18880;DHT22;9572;52.378;13.404;2023-07-22T11:34:20;23.10;99.90
18880;DHT22;9572;52.378;13.404;2023-07-22T11:36:48;23.20;99.90
18880;DHT22;9572;52.378;13.404;2023-07-22T11:39:19;23.20;99.90
18880;DHT22;9572;52.378;13.404;2023-07-22T11:41:47;23.40;99.90
18880;DHT22;9572;52.378;13.404;2023-07-22T11:44:18;23.50;99.90
18880;DHT22;9572;52.378;13.404;2023-07-22T11:46:52;23.70;99.90
18880;DHT22;9572;52.378;13.404;2023-07-22T11:49:26;23.80;99.90
18880;DHT22;9572;52.378;13.404;2023-07-22T11:51:57;23.80;99.90
18880;DHT22;9572;52.378;13.404;2023-07-22T11:54:24;23.80;99.90
18880;DHT22;9572;52.378;13.404;2023-07-22T11:56:52;23.70;99.90
18880;DHT22;9572;52.378;13.404;2023-07-22T11:59:36;23.30;99.90
18880;DHT22;9572;52.378;13.404;2023-07-22T12:02:03;23.10;99.90
18880;DHT22;9572;52.378;13.404;2023-07-22T12:04:33;23.10;99.90
18880;DHT22;9572;52.378;13.404;2023-07-22T12:07:01;23.20;99.90
18880;DHT22;9572;52.378;13.404;2023-07-22T12:09:29;23.60;99.90
18880;DHT22;9572;52.378;13.404;2023-07-22T12:11:57;24.00;99.90
18880;DHT22;9572;52.378;13.404;2023-07-22T12:14:32;24.30;99.90
18880;DHT22;9572;52.378;13.404;2023-07-22T12:17:00;24.50;99.90
18880;DHT22;9572;52.378;13.404;2023-07-22T12:19:28;24.60;99.90
18880;DHT22;9572;52.378;13.404;2023-07-22T12:21:56;24.60;99.90
18880;DHT22;9572;52.378;13.404;2023-07-22T12:24:24;24.70;99.90
18880;DHT22;9572;52.378;13.404;2023-07-22T12:26:51;24.90;99.90
18880;DHT22;9572;52.378;13.404;2023-07-22T12:29:17;25.00;99.90
18880;DHT22;9572;52.378;13.404;2023-07-22T12:31:44;25.00;99.90
18880;DHT22;9572;52.378;13.404;2023-07-22T12:34:11;24.80;99.90
18880;DHT22;9572;52.378;13.404;2023-07-22T12:36:39;24.80;99.90
18880;DHT22;9572;52.378;13.404;2023-07-22T12:39:08;24.70;99.90
18880;DHT22;9572;52.378;13.404;2023-07-22T12:41:35;24.60;99.90
18880;DHT22;9572;52.378;13.404;2023-07-22T12:44:01;24.40;99.90
18880;DHT22;9572;52.378;13.404;2023-07-22T12:46:29;24.10;99.90
18880;DHT22;9572;52.378;13.404;2023-07-22T12:48:55;24.00;99.90
18880;DHT22;9572;52.378;13.404;2023-07-22T12:51:22;24.00;99.90
18880;DHT22;9572;52.378;13.404;2023-07-22T12:53:49;24.10;99.90
18880;DHT22;9572;52.378;13.404;2023-07-22T12:56:18;24.30;99.90
18880;DHT22;9572;52.378;13.404;2023-07-22T12:58:45;24.20;99.90
18880;DHT22;9572;52.378;13.404;2023-07-22T13:01:12;24.20;99.90
18880;DHT22;9572;52.378;13.404;2023-07-22T13:03:39;24.10;99.90
18880;DHT22;9572;52.378;13.404;2023-07-22T13:06:06;24.10;99.90
18880;DHT22;9572;52.378;13.404;2023-07-22T13:08:33;24.20;99.90
18880;DHT22;9572;52.378;13.404;2023-07-22T13:11:00;24.40;99.90
18880;DHT22;9572;52.378;13.404;2023-07-22T13:13:28;24.60;99.90
18880;DHT22;9572;52.378;13.404;2023-07-22T13:15:55;24.60;99.90
18880;DHT22;9572;52.378;13.404;2023-07-22T13:18:22;24.40;99.90
18880;DHT22;9572;52.378;13.404;2023-07-22T13:20:49;24.30;99.90
18880;DHT22;9572;52.378;13.404;2023-07-22T13:23:16;24.00;99.90
18880;DHT22;9572;52.378;13.404;2023-07-22T13:25:43;23.80;99.90
18880;DHT22;9572;52.378;13.404;2023-07-22T13:28:10;23.50;99.90
18880;DHT22;9572;52.378;13.404;2023-07-22T13:30:39;23.30;99.90
18880;DHT22;9572;52.378;13.404;2023-07-22T13:33:06;23.20;99.90
18880;DHT22;9572;52.378;13.404;2023-07-22T13:35:33;23.10;99.90
18880;DHT22;9572;52.378;13.404;2023-07-22T13:38:00;23.10;99.90
18880;DHT22;9572;52.378;13.404;2023-07-22T13:40:27;23.30;99.90
18880;DHT22;9572;52.378;13.404;2023-07-22T13:42:54;23.50;99.90
18880;DHT22;9572;52.378;13.404;2023-07-22T13:45:21;23.60;99.90
18880;DHT22;9572;52.378;13.404;2023-07-22T13:47:49;23.70;99.90
18880;DHT22;9572;52.378;13.404;2023-07-22T13:50:16;23.60;99.90
18880;DHT22;9572;52.378;13.404;2023-07-22T13:52:43;23.40;99.90
18880;DHT22;9572;52.378;13.404;2023-07-22T13:55:10;23.40;99.90
18880;DHT22;9572;52.378;13.404;2023-07-22T13:57:37;23.50;99.90
18880;DHT22;9572;52.378;13.404;2023-07-22T14:00:05;23.80;99.90
18880;DHT22;9572;52.378;13.404;2023-07-22T14:02:34;23.90;99.90
18880;DHT22;9572;52.378;13.404;2023-07-22T14:05:03;24.10;99.90
18880;DHT22;9572;52.378;13.404;2023-07-22T14:07:30;24.10;99.90
18880;DHT22;9572;52.378;13.404;2023-07-22T14:09:57;24.20;99.90
18880;DHT22;9572;52.378;13.404;2023-07-22T14:12:24;24.20;99.90
18880;DHT22;9572;52.378;13.404;2023-07-22T14:14:51;24.10;99.90
18880;DHT22;9572;52.378;13.404;2023-07-22T14:17:18;24.00;99.90
18880;DHT22;9572;52.378;13.404;2023-07-22T14:19:45;23.90;99.90
18880;DHT22;9572;52.378;13.404;2023-07-22T14:22:13;23.80;99.90
18880;DHT22;9572;52.378;13.404;2023-07-22T14:24:41;23.80;99.90
18880;DHT22;9572;52.378;13.404;2023-07-22T14:27:08;23.90;99.90
18880;DHT22;9572;52.378;13.404;2023-07-22T14:29:35;24.10;99.90
18880;DHT22;9572;52.378;13.404;2023-07-22T14:32:02;24.30;99.90
18880;DHT22;9572;52.378;13.404;2023-07-22T14:34:29;24.50;99.90
18880;DHT22;9572;52.378;13.404;2023-07-22T14:36:56;24.60;99.90
18880;DHT22;9572;52.378;13.404;2023-07-22T14:39:24;24.80;99.90
18880;DHT22;9572;52.378;13.404;2023-07-22T14:41:51;24.90;99.90
18880;DHT22;9572;52.378;13.404;2023-07-22T14:44:19;25.10;99.90
18880;DHT22;9572;52.378;13.404;2023-07-22T14:46:46;25.00;99.90
18880;DHT22;9572;52.378;13.404;2023-07-22T14:49:13;24.70;99.90
18880;DHT22;9572;52.378;13.404;2023-07-22T14:51:40;24.40;99.90
18880;DHT22;9572;52.378;13.404;2023-07-22T14:54:07;24.20;99.90
18880;DHT22;9572;52.378;13.404;2023-07-22T14:56:35;24.10;99.90
18880;DHT22;9572;52.378;13.404;2023-07-22T14:59:02;24.10;99.90
18880;DHT22;9572;52.378;13.404;2023-07-22T15:01:37;24.00;99.90
18880;DHT22;9572;52.378;13.404;2023-07-22T15:04:05;23.90;99.90
18880;DHT22;9572;52.378;13.404;2023-07-22T15:06:33;23.90;99.90
18880;DHT22;9572;52.378;13.404;2023-07-22T15:09:01;23.90;99.90
18880;DHT22;9572;52.378;13.404;2023-07-22T15:11:31;23.70;99.90
18880;DHT22;9572;52.378;13.404;2023-07-22T15:14:00;23.70;99.90
18880;DHT22;9572;52.378;13.404;2023-07-22T15:16:27;23.50;99.90
18880;DHT22;9572;52.378;13.404;2023-07-22T15:18:54;23.50;99.90
18880;DHT22;9572;52.378;13.404;2023-07-22T15:21:21;23.40;99.90
18880;DHT22;9572;52.378;13.404;2023-07-22T15:23:48;23.30;99.90
18880;DHT22;9572;52.378;13.404;2023-07-22T15:26:15;23.30;99.90
18880;DHT22;9572;52.378;13.404;2023-07-22T15:28:42;23.20;99.90
18880;DHT22;9572;52.378;13.404;2023-07-22T15:31:11;23.30;99.90
18880;DHT22;9572;52.378;13.404;2023-07-22T15:33:38;23.30;99.90
18880;DHT22;9572;52.378;13.404;2023-07-22T15:36:05;23.30;99.90
18880;DHT22;9572;52.378;13.404;2023-07-22T15:38:32;23.30;99.90